Startpagina
METAR-TAF:

METAR-TAF

Vliegvelden :

Koror, Babelthuap Island, Palau

Roman Tmetuchl International Airport

breedte: 07-22N, lengte: 134-32E, hoogte: 54 m

Actueel weer

Dit bericht is 21 minuten geleden gemaakt, om 05:50 UTC
Wind 10 kt uit het oostnoordoosten
Temperatuur 31°C
Vochtigheid 66%
Druk 1010 hPa
Zicht: 24.1 km
Verspreide wolken op 1600 ft, Stapelwolken.
Gebroken wolken op 12000 ft
Gebroken wolken op 30000 ft

METAR: PTRO 240550Z 07010KT 15SM SCT016TCU BKN120 BKN300 31/24 A2982 RMK CB VC SW-NW

Tijdstip: 15:11 (06:11 UTC)

Verwachting

Dit bericht is 48 minuten geleden gemaakt, om 05:23 UTC
Verwachting geldig van 24 om 06 UTC tot 25 om 06 UTC
Wind 10 kt uit het oostnoordoosten
Zicht: 10 km
Verspreide wolken op 1600 ft
Verspreide wolken op 3000 ft
buien in de omgeving

TAF: PTRO 240523Z 2406/2506 06010KT P6SM VCSH SCT016 SCT030

Waarnemingen en weersverwachtingen van meer dan 4000 vliegvelden (METAR en TAF).

De beschikbare stations zijn de gele en rode punten op de kaart.

Ga met uw muis naar het station om de naam te zien.

Klik dan om waarnemingen en weersverwachtingen te zien.

kaart wijzigen: klik op de groene knoppen met een zwart kruis om in te zoomen, op de groene knop met een streepje om uit te zoomen of op de groene pijlen voor aangrenzende kaarten.


METAR-TAF: